createdAt,value
2022-10-21T00:01:02.765Z,96432.13
2022-10-21T00:03:30.660Z,96415.38
2022-10-21T00:06:00.029Z,96416.50
2022-10-21T00:08:28.151Z,96420.16
2022-10-21T00:10:59.252Z,96413.88
2022-10-21T00:13:29.227Z,96400.88
2022-10-21T00:16:01.301Z,96421.53
2022-10-21T00:18:30.020Z,96401.84
2022-10-21T00:20:59.711Z,96420.00
2022-10-21T00:23:27.937Z,96416.25
2022-10-21T00:26:00.223Z,96422.53
2022-10-21T00:28:28.746Z,96415.28
2022-10-21T00:30:58.170Z,96418.06
2022-10-21T00:33:28.359Z,96405.75
2022-10-21T00:36:02.737Z,96404.66
2022-10-21T00:38:30.982Z,96404.38
2022-10-21T00:40:59.316Z,96401.88
2022-10-21T00:43:28.203Z,96396.44
2022-10-21T00:46:00.864Z,96399.09
2022-10-21T00:48:34.194Z,96397.25
2022-10-21T00:51:06.959Z,96397.97
2022-10-21T00:53:37.648Z,96397.97
2022-10-21T00:56:15.425Z,96399.63
2022-10-21T00:58:46.857Z,96405.22
2022-10-21T01:01:18.051Z,96404.53
2022-10-21T01:03:49.360Z,96411.53
2022-10-21T01:06:23.058Z,96399.91
2022-10-21T01:08:54.652Z,96402.16
2022-10-21T01:11:24.594Z,96399.22
2022-10-21T01:14:12.752Z,96395.16
2022-10-21T01:16:48.610Z,96392.09
2022-10-21T01:20:04.171Z,96388.75
2022-10-21T01:22:57.572Z,96383.44
2022-10-21T01:25:45.053Z,96380.38
2022-10-21T01:28:25.165Z,96386.97
2022-10-21T01:30:57.234Z,96385.28
2022-10-21T01:39:47.355Z,96387.09
2022-10-21T01:42:20.973Z,96390.03
2022-10-21T01:44:54.909Z,96398.00
2022-10-21T01:47:28.615Z,96400.91
2022-10-21T01:50:01.838Z,96396.59
2022-10-21T01:52:30.948Z,96401.31
2022-10-21T01:55:02.473Z,96399.66
2022-10-21T01:57:36.978Z,96400.34
2022-10-21T02:00:06.463Z,96394.22
2022-10-21T02:02:40.497Z,96387.78
2022-10-21T02:05:14.956Z,96384.03
2022-10-21T02:07:44.257Z,96373.25
2022-10-21T02:10:12.644Z,96373.41
2022-10-21T02:12:44.576Z,96359.72
2022-10-21T02:15:14.923Z,96352.47
2022-10-21T02:17:50.990Z,96349.41
2022-10-21T02:20:20.164Z,96339.63
2022-10-21T02:22:49.712Z,96332.63
2022-10-21T02:25:21.300Z,96317.56
2022-10-21T02:27:51.911Z,96308.09
2022-10-21T02:30:20.613Z,96301.78
2022-10-21T02:32:57.735Z,96309.59
2022-10-21T02:35:39.374Z,96311.97
2022-10-21T02:38:15.715Z,96326.88
2022-10-21T02:40:46.694Z,96308.31
2022-10-21T02:43:20.345Z,96298.84
2022-10-21T02:45:49.161Z,96289.22
2022-10-21T02:48:18.381Z,96270.78
2022-10-21T02:50:46.375Z,96264.22
2022-10-21T02:53:15.065Z,96291.56
2022-10-21T02:55:43.040Z,96280.53
2022-10-21T02:58:10.884Z,96277.88
2022-10-21T03:00:38.984Z,96268.28
2022-10-21T03:03:06.962Z,96262.78
2022-10-21T03:05:36.200Z,96255.53
2022-10-21T03:08:04.213Z,96252.88
2022-10-21T03:10:32.223Z,96250.22
2022-10-21T03:13:00.155Z,96255.41
2022-10-21T03:15:28.068Z,96254.41
2022-10-21T03:17:55.998Z,96268.22
2022-10-21T03:20:24.028Z,96255.09
2022-10-21T03:22:53.259Z,96250.50
2022-10-21T03:25:21.246Z,96252.44
2022-10-21T03:27:50.928Z,96258.00
2022-10-21T03:30:19.178Z,96251.72
2022-10-21T03:32:47.094Z,96247.78
2022-10-21T03:35:15.256Z,96257.13
2022-10-21T03:37:43.228Z,96249.88
2022-10-21T03:40:13.229Z,96254.34
2022-10-21T03:42:41.491Z,96249.56
2022-10-21T03:45:10.590Z,96249.25
2022-10-21T03:47:38.702Z,96257.91
2022-10-21T03:50:11.892Z,96238.19
2022-10-21T03:52:41.992Z,96237.06
2022-10-21T03:55:10.233Z,96240.41
2022-10-21T03:57:39.793Z,96245.44
2022-10-21T04:00:09.371Z,96241.66
2022-10-21T04:02:43.596Z,96246.09
2022-10-21T04:05:12.312Z,96234.50
2022-10-21T04:07:40.457Z,96233.53
2022-10-21T04:10:10.204Z,96228.22
2022-10-21T04:12:39.843Z,96219.97
2022-10-21T04:15:09.639Z,96220.94
2022-10-21T04:17:37.527Z,96210.31
2022-10-21T04:20:06.434Z,96206.69
2022-10-21T04:22:34.391Z,96202.34
2022-10-21T04:25:04.689Z,96204.19
2022-10-21T04:27:32.935Z,96206.69
2022-10-21T04:30:02.144Z,96214.34
2022-10-21T04:32:30.063Z,96208.91
2022-10-21T04:34:57.940Z,96203.59
2022-10-21T04:37:25.930Z,96204.41
2022-10-21T04:39:53.779Z,96207.91
2022-10-21T04:42:21.771Z,96199.81
2022-10-21T04:44:49.753Z,96195.31
2022-10-21T04:47:19.204Z,96195.31
2022-10-21T04:49:47.122Z,96185.38
2022-10-21T04:52:15.067Z,96182.56
2022-10-21T04:54:42.948Z,96191.38
2022-10-21T04:57:10.870Z,96194.59
2022-10-21T04:59:38.796Z,96202.41
2022-10-21T05:02:06.696Z,96194.28
2022-10-21T05:04:35.977Z,96193.31
2022-10-21T05:07:03.952Z,96200.13
2022-10-21T05:09:31.986Z,96201.78
2022-10-21T05:11:59.931Z,96202.34
2022-10-21T05:14:27.820Z,96201.19
2022-10-21T05:16:55.781Z,96204.53
2022-10-21T05:19:26.531Z,96208.72
2022-10-21T05:21:57.606Z,96209.41
2022-10-21T05:24:26.359Z,96204.47
2022-10-21T05:26:54.275Z,96208.63
2022-10-21T05:29:22.210Z,96199.00
2022-10-21T05:31:50.087Z,96197.03
2022-10-21T05:34:18.123Z,96189.06
2022-10-21T05:36:46.017Z,96186.22
2022-10-21T05:39:15.337Z,96186.91
2022-10-21T05:41:45.560Z,96180.63
2022-10-21T05:44:15.823Z,96180.47
2022-10-21T05:46:43.767Z,96177.81
2022-10-21T05:49:12.890Z,96177.66
2022-10-21T05:51:40.843Z,96175.97
2022-10-21T05:54:08.718Z,96172.19
2022-10-21T05:56:38.132Z,96165.75
2022-10-21T05:59:07.953Z,96157.78
2022-10-21T06:01:39.484Z,96153.44
2022-10-21T06:04:07.754Z,96153.28
2022-10-21T06:06:35.634Z,96148.81
2022-10-21T06:09:03.636Z,96149.63
2022-10-21T06:11:32.313Z,96153.28
2022-10-21T06:14:01.558Z,96164.59
2022-10-21T06:16:29.517Z,96164.59
2022-10-21T06:18:57.428Z,96174.38
2022-10-21T06:21:25.306Z,96167.06
2022-10-21T06:23:54.637Z,96161.63
2022-10-21T06:26:22.843Z,96164.13
2022-10-21T06:28:50.779Z,96179.41
2022-10-21T06:31:21.613Z,96187.19
2022-10-21T06:33:49.916Z,96177.72
2022-10-21T06:36:17.924Z,96186.22
2022-10-21T06:38:45.819Z,96193.38
2022-10-21T06:41:15.311Z,96184.38
2022-10-21T06:43:43.906Z,96200.34
2022-10-21T06:46:14.103Z,96208.16
2022-10-21T06:48:43.848Z,96219.63
2022-10-21T06:51:15.403Z,96226.59
2022-10-21T06:53:44.115Z,96240.88
2022-10-21T06:56:14.509Z,96222.78
2022-10-21T06:58:43.417Z,96217.66
2022-10-21T07:01:27.302Z,96207.72
2022-10-21T07:04:03.331Z,96211.19
2022-10-21T07:09:06.217Z,96211.03
2022-10-21T07:11:34.183Z,96216.19
2022-10-21T07:14:02.798Z,96206.25
2022-10-21T07:16:32.225Z,96153.09
2022-10-21T07:19:00.281Z,96139.47
2022-10-21T07:21:31.740Z,96150.63
2022-10-21T07:24:01.319Z,96184.03
2022-10-21T07:26:30.863Z,96191.19
2022-10-21T07:29:00.525Z,96189.22
2022-10-21T07:31:29.796Z,96211.16
2022-10-21T07:33:57.775Z,96221.81
2022-10-21T07:36:27.706Z,96213.66
2022-10-21T07:38:59.972Z,96203.69
2022-10-21T07:41:31.563Z,96201.88
2022-10-21T07:43:59.747Z,96188.56
2022-10-21T07:46:27.689Z,96186.91
2022-10-21T07:48:56.321Z,96192.09
2022-10-21T07:51:28.584Z,96207.88
2022-10-21T07:54:01.841Z,96209.69
2022-10-21T07:56:32.015Z,96207.56
2022-10-21T07:59:01.562Z,96207.56
2022-10-21T08:01:30.323Z,96198.59
2022-10-21T08:03:59.052Z,96194.66
2022-10-21T08:06:28.806Z,96187.63
2022-10-21T08:08:57.454Z,96184.97
2022-10-21T08:11:29.320Z,96209.59
2022-10-21T08:13:57.810Z,96212.25
2022-10-21T08:16:26.572Z,96212.25
2022-10-21T08:18:54.700Z,96210.44
2022-10-21T08:21:22.675Z,96202.78
2022-10-21T08:23:50.587Z,96189.47
2022-10-21T08:26:18.431Z,96184.00
2022-10-21T08:28:47.762Z,96167.19
2022-10-21T08:31:18.312Z,96175.03
2022-10-21T08:33:46.496Z,96162.75
2022-10-21T08:36:16.675Z,96151.41
2022-10-21T08:38:45.168Z,96160.06
2022-10-21T08:41:28.374Z,96197.97
2022-10-21T08:44:01.335Z,96232.56
2022-10-21T08:46:35.056Z,96212.25
2022-10-21T08:49:10.591Z,96196.16
2022-10-21T08:51:45.791Z,96223.56
2022-10-21T08:54:18.572Z,96260.66
2022-10-21T08:56:48.094Z,96245.53
2022-10-21T08:59:21.701Z,96220.59
2022-10-21T09:01:56.460Z,96249.56
2022-10-21T09:04:34.381Z,96263.50
2022-10-21T09:07:09.785Z,96252.88
2022-10-21T09:09:45.030Z,96256.38
2022-10-21T09:12:21.427Z,96267.84
2022-10-21T09:15:11.274Z,96272.84
2022-10-21T09:17:51.968Z,96260.09
2022-10-21T09:20:33.030Z,96275.72
2022-10-21T09:23:12.126Z,96282.41
2022-10-21T09:25:46.664Z,96284.44
2022-10-21T09:28:16.764Z,96278.63
2022-10-21T09:30:46.293Z,96282.31
2022-10-21T09:33:19.821Z,96287.78
2022-10-21T09:35:51.953Z,96292.66
2022-10-21T09:38:25.982Z,96292.50
2022-10-21T09:40:59.278Z,96294.69
2022-10-21T09:43:28.371Z,96296.06
2022-10-21T09:45:58.639Z,96304.69
2022-10-21T09:48:33.721Z,96308.41
2022-10-21T09:51:11.149Z,96301.78
2022-10-21T09:53:49.973Z,96305.81
2022-10-21T09:56:21.812Z,96304.50
2022-10-21T09:58:52.542Z,96301.50
2022-10-21T10:01:23.726Z,96300.69
2022-10-21T10:03:53.730Z,96305.53
2022-10-21T10:06:36.411Z,96311.69
2022-10-21T10:09:16.250Z,96314.50
2022-10-21T10:11:53.700Z,96315.03
2022-10-21T10:14:28.147Z,96311.06
2022-10-21T10:16:57.952Z,96300.41
2022-10-21T10:19:28.326Z,96304.59
2022-10-21T10:22:13.585Z,96307.06
2022-10-21T10:24:42.181Z,96306.91
2022-10-21T10:27:15.702Z,96307.06
2022-10-21T10:29:49.896Z,96314.06
2022-10-21T10:32:19.515Z,96311.09
2022-10-21T10:34:54.082Z,96319.91
2022-10-21T10:37:24.391Z,96317.91
2022-10-21T10:39:56.482Z,96316.94
2022-10-21T10:42:28.344Z,96328.41
2022-10-21T10:44:58.579Z,96330.59
2022-10-21T10:47:30.389Z,96321.94
2022-10-21T10:49:58.395Z,96332.13
2022-10-21T10:52:26.269Z,96319.47
2022-10-21T10:55:17.463Z,96316.47
2022-10-21T10:57:58.955Z,96314.34
2022-10-21T11:00:42.184Z,96307.88
2022-10-21T11:03:15.847Z,96307.53
2022-10-21T11:05:46.205Z,96311.53
2022-10-21T11:08:17.443Z,96318.88
2022-10-21T11:10:48.709Z,96321.88
2022-10-21T11:13:18.687Z,96332.59
2022-10-21T11:16:02.113Z,96324.94
2022-10-21T11:18:36.000Z,96326.13
2022-10-21T11:21:12.600Z,96322.00
2022-10-21T11:24:07.110Z,96324.19
2022-10-21T11:26:43.695Z,96323.00
2022-10-21T11:29:40.148Z,96317.53
2022-10-21T11:32:21.476Z,96330.00
2022-10-21T11:35:01.999Z,96319.19
2022-10-21T11:37:47.433Z,96316.84
2022-10-21T11:40:26.471Z,96307.53
2022-10-21T11:42:55.684Z,96317.69
2022-10-21T11:45:33.214Z,96313.19
2022-10-21T11:48:12.254Z,96312.22
2022-10-21T11:50:50.312Z,96311.19
2022-10-21T11:53:33.190Z,96316.38
2022-10-21T11:56:14.262Z,96313.19
2022-10-21T11:58:59.353Z,96310.72
2022-10-21T12:01:46.773Z,96307.53
2022-10-21T12:04:29.185Z,96309.53
2022-10-21T12:07:13.790Z,96309.53
2022-10-21T12:09:49.081Z,96308.53
2022-10-21T12:12:20.356Z,96320.19
2022-10-21T12:14:51.864Z,96321.34
2022-10-21T12:17:23.011Z,96322.19
2022-10-21T12:19:56.454Z,96328.88
2022-10-21T12:22:29.420Z,96320.88
2022-10-21T12:25:05.756Z,96318.34
2022-10-21T12:27:41.126Z,96315.84
2022-10-21T12:30:17.409Z,96316.19
2022-10-21T12:32:54.146Z,96322.66
2022-10-21T12:35:28.089Z,96315.66
2022-10-21T12:38:20.280Z,96323.16
2022-10-21T12:40:49.444Z,96325.97
2022-10-21T12:43:22.538Z,96322.78
2022-10-21T12:46:05.003Z,96320.44
2022-10-21T12:48:36.380Z,96321.28
2022-10-21T12:51:07.787Z,96316.09
2022-10-21T12:53:42.959Z,96318.78
2022-10-21T12:56:12.050Z,96307.09
2022-10-21T12:58:44.744Z,96314.13
2022-10-21T13:01:36.825Z,96307.97
2022-10-21T13:04:04.924Z,96311.44
2022-10-21T13:06:54.061Z,96308.13
2022-10-21T13:09:39.032Z,96315.97
2022-10-21T13:12:28.578Z,96318.44
2022-10-21T13:14:58.450Z,96317.75
2022-10-21T13:17:34.477Z,96311.44
2022-10-21T13:20:39.794Z,96312.44
2022-10-21T13:23:39.387Z,96309.28
2022-10-21T13:26:16.406Z,96300.44
2022-10-21T13:28:57.459Z,96301.44
2022-10-21T13:31:25.433Z,96302.25
2022-10-21T13:33:55.871Z,96302.44
2022-10-21T13:39:09.703Z,96311.41
2022-10-21T13:41:39.488Z,96317.91
2022-10-21T13:44:08.702Z,96296.78
2022-10-21T13:46:42.480Z,96304.09
2022-10-21T13:49:28.095Z,96298.56
2022-10-21T13:51:56.501Z,96292.75
2022-10-21T13:54:24.610Z,96290.09
2022-10-21T13:56:53.928Z,96297.06
2022-10-21T13:59:28.898Z,96294.41
2022-10-21T14:01:58.362Z,96285.75
2022-10-21T14:04:27.918Z,96292.09
2022-10-21T14:06:58.767Z,96293.09
2022-10-21T14:09:29.876Z,96281.75
2022-10-21T14:12:02.536Z,96282.91
2022-10-21T14:14:32.642Z,96273.91
2022-10-21T14:17:02.750Z,96259.91
2022-10-21T14:19:33.265Z,96252.44
2022-10-21T14:22:02.122Z,96262.25
2022-10-21T14:24:38.669Z,96270.72
2022-10-21T14:27:09.532Z,96277.88
2022-10-21T14:29:38.057Z,96288.72
2022-10-21T14:32:07.038Z,96296.88
2022-10-21T14:34:37.254Z,96308.34
2022-10-21T14:37:19.370Z,96303.03
2022-10-21T14:39:47.403Z,96280.38
2022-10-21T14:42:19.776Z,96284.72
2022-10-21T14:44:49.665Z,96306.03
2022-10-21T14:47:19.893Z,96307.69
2022-10-21T14:49:49.860Z,96302.00
2022-10-21T14:52:21.925Z,96308.16
2022-10-21T14:54:54.050Z,96313.00
2022-10-21T14:57:34.719Z,96316.47
2022-10-21T15:00:03.491Z,96308.16
2022-10-21T15:02:36.643Z,96294.28
2022-10-21T15:05:06.682Z,96306.63
2022-10-21T15:07:36.413Z,96294.28
2022-10-21T15:10:19.280Z,96311.13
2022-10-21T15:12:51.372Z,96305.81
2022-10-21T15:15:52.613Z,96297.97
2022-10-21T15:18:24.287Z,96299.13
2022-10-21T15:20:58.332Z,96291.97
2022-10-21T15:23:30.951Z,96286.28
2022-10-21T15:26:03.594Z,96286.28
2022-10-21T15:28:34.833Z,96296.13
2022-10-21T15:31:03.503Z,96284.94
2022-10-21T15:33:31.532Z,96286.91
2022-10-21T15:36:04.341Z,96292.94
2022-10-21T15:38:32.273Z,96285.25
2022-10-21T15:41:00.161Z,96283.91
2022-10-21T15:43:28.496Z,96274.09
2022-10-21T15:45:57.753Z,96273.25
2022-10-21T15:48:25.780Z,96262.41
2022-10-21T15:50:57.185Z,96264.09
2022-10-21T15:53:25.169Z,96258.78
2022-10-21T15:55:54.147Z,96256.41
2022-10-21T15:58:22.024Z,96258.38
2022-10-21T16:00:50.141Z,96254.22
2022-10-21T16:03:19.474Z,96255.69
2022-10-21T16:05:47.539Z,96266.03
2022-10-21T16:08:15.671Z,96268.69
2022-10-21T16:10:47.660Z,96267.84
2022-10-21T16:13:15.877Z,96260.88
2022-10-21T16:15:43.861Z,96274.34
2022-10-21T16:18:13.358Z,96277.13
2022-10-21T16:20:44.448Z,96281.97
2022-10-21T16:23:12.596Z,96276.09
2022-10-21T16:25:40.570Z,96282.09
2022-10-21T16:28:08.505Z,96281.44
2022-10-21T16:30:39.089Z,96287.91
2022-10-21T16:33:07.088Z,96288.22
2022-10-21T16:35:34.995Z,96283.88
2022-10-21T16:38:04.257Z,96287.69
2022-10-21T16:40:34.909Z,96281.88
2022-10-21T16:43:02.954Z,96283.84
2022-10-21T16:45:32.808Z,96288.00
2022-10-21T16:48:04.137Z,96293.47
2022-10-21T16:50:39.310Z,96281.47
2022-10-21T16:53:09.068Z,96277.31
2022-10-21T16:55:37.074Z,96286.13
2022-10-21T16:58:05.435Z,96280.78
2022-10-21T17:00:33.364Z,96279.78
2022-10-21T17:03:01.624Z,96282.78
2022-10-21T17:05:29.493Z,96280.13
2022-10-21T17:07:58.569Z,96281.78
2022-10-21T17:10:28.081Z,96285.56
2022-10-21T17:12:59.032Z,96283.09
2022-10-21T17:15:27.307Z,96287.41
2022-10-21T17:17:55.302Z,96285.06
2022-10-21T17:20:23.241Z,96281.41
2022-10-21T17:22:51.167Z,96291.22
2022-10-21T17:25:19.106Z,96300.84
2022-10-21T17:27:48.362Z,96292.69
2022-10-21T17:30:16.380Z,96289.84
2022-10-21T17:32:44.467Z,96299.66
2022-10-21T17:35:18.647Z,96297.16
2022-10-21T17:37:47.265Z,96297.16
2022-10-21T17:40:17.672Z,96288.47
2022-10-21T17:42:45.619Z,96287.66
2022-10-21T17:45:16.862Z,96282.34
2022-10-21T17:47:45.014Z,96286.00
2022-10-21T17:50:13.900Z,96278.16
2022-10-21T17:52:43.564Z,96290.63
2022-10-21T17:55:11.714Z,96285.47
2022-10-21T17:57:39.628Z,96276.16
2022-10-21T18:00:09.551Z,96285.63
2022-10-21T18:02:39.188Z,96277.94
2022-10-21T18:05:09.875Z,96280.47
2022-10-21T18:07:38.896Z,96271.81
2022-10-21T18:10:08.141Z,96275.47
2022-10-21T18:12:36.582Z,96270.44
2022-10-21T18:15:05.261Z,96267.13
2022-10-21T18:17:33.829Z,96260.94
2022-10-21T18:20:03.143Z,96266.25
2022-10-21T18:22:31.048Z,96259.28
2022-10-21T18:24:58.985Z,96248.97
2022-10-21T18:27:26.852Z,96256.78
2022-10-21T18:29:54.798Z,96252.75
2022-10-21T18:32:22.815Z,96256.25
2022-10-21T18:34:51.007Z,96253.75
2022-10-21T18:37:20.768Z,96250.25
2022-10-21T18:39:48.691Z,96253.06
2022-10-21T18:42:16.609Z,96245.09
2022-10-21T18:44:44.579Z,96256.56
2022-10-21T18:47:12.951Z,96253.06
2022-10-21T18:49:40.869Z,96250.72
2022-10-21T18:52:08.751Z,96253.69
2022-10-21T18:54:38.039Z,96251.03
2022-10-21T18:57:09.803Z,96256.88
2022-10-21T18:59:37.976Z,96252.69
2022-10-21T19:02:06.009Z,96258.84
2022-10-21T19:04:34.096Z,96253.53
2022-10-21T19:07:02.068Z,96258.84
2022-10-21T19:09:29.920Z,96259.69
2022-10-21T19:12:02.842Z,96251.88
2022-10-21T19:14:32.372Z,96258.84
2022-10-21T19:17:00.735Z,96256.03
2022-10-21T19:19:29.081Z,96254.34
2022-10-21T19:21:57.013Z,96255.34
2022-10-21T19:24:25.497Z,96257.00
2022-10-21T19:26:54.635Z,96259.38
2022-10-21T19:29:25.776Z,96267.38
2022-10-21T19:31:55.714Z,96269.19
2022-10-21T19:34:26.827Z,96259.22
2022-10-21T19:36:55.132Z,96254.06
2022-10-21T19:39:23.106Z,96252.09
2022-10-21T19:41:51.140Z,96253.75
2022-10-21T19:44:19.339Z,96257.09
2022-10-21T19:46:48.657Z,96261.59
2022-10-21T19:49:16.605Z,96254.56
2022-10-21T19:51:45.304Z,96259.75
2022-10-21T19:54:14.398Z,96262.56
2022-10-21T19:56:42.570Z,96261.72
2022-10-21T19:59:11.325Z,96269.69
2022-10-21T20:01:39.406Z,96261.88
2022-10-21T20:04:08.674Z,96273.38
2022-10-21T20:06:38.154Z,96277.53
2022-10-21T20:09:08.556Z,96290.97
2022-10-21T20:11:37.372Z,96286.47
2022-10-21T20:14:06.046Z,96286.47
2022-10-21T20:16:36.182Z,96276.69
2022-10-21T20:19:05.908Z,96282.69
2022-10-21T20:21:37.421Z,96301.28
2022-10-21T20:24:06.076Z,96302.97
2022-10-21T20:26:34.517Z,96320.06
2022-10-21T20:29:03.164Z,96318.94
2022-10-21T20:31:31.302Z,96320.91
2022-10-21T20:33:59.173Z,96324.25
2022-10-21T20:36:28.710Z,96320.75
2022-10-21T20:38:59.559Z,96321.72
2022-10-21T20:41:30.893Z,96313.63
2022-10-21T20:43:58.714Z,96313.75
2022-10-21T20:46:27.262Z,96310.28
2022-10-21T20:48:56.118Z,96311.25
2022-10-21T20:51:25.515Z,96289.00
2022-10-21T20:53:55.326Z,96283.81
2022-10-21T20:56:27.682Z,96284.16
2022-10-21T20:58:55.747Z,96280.47
2022-10-21T21:01:26.078Z,96286.66
2022-10-21T21:03:54.877Z,96289.13
2022-10-21T21:06:22.901Z,96297.44
2022-10-21T21:09:08.530Z,96318.25
2022-10-21T21:11:40.217Z,96329.19
2022-10-21T21:14:08.178Z,96331.00
2022-10-21T21:16:36.515Z,96340.81
2022-10-21T21:19:07.034Z,96344.47
2022-10-21T21:21:36.651Z,96347.81
2022-10-21T21:24:05.288Z,96357.75
2022-10-21T21:26:35.312Z,96367.69
2022-10-21T21:29:06.768Z,96366.69
2022-10-21T21:31:35.785Z,96371.19
2022-10-21T21:34:04.169Z,96378.66
2022-10-21T21:36:32.054Z,96379.47
2022-10-21T21:39:00.165Z,96393.75
2022-10-21T21:41:28.223Z,96401.19
2022-10-21T21:43:56.758Z,96392.41
2022-10-21T21:46:27.090Z,96380.22
2022-10-21T21:48:59.532Z,96381.22
2022-10-21T21:51:31.172Z,96391.16
2022-10-21T21:54:00.111Z,96388.81
2022-10-21T21:56:28.930Z,96395.41
2022-10-21T21:58:58.075Z,96366.78
2022-10-21T22:01:29.894Z,96365.22
2022-10-21T22:03:58.635Z,96361.22
2022-10-21T22:06:28.969Z,96363.19
2022-10-21T22:08:57.195Z,96359.47
2022-10-21T22:11:27.341Z,96369.25
2022-10-21T22:13:55.248Z,96371.06
2022-10-21T22:16:25.678Z,96366.88
2022-10-21T22:18:55.349Z,96368.84
2022-10-21T22:21:25.213Z,96366.19
2022-10-21T22:23:53.723Z,96370.69
2022-10-21T22:26:23.137Z,96373.63
2022-10-21T22:28:51.103Z,96367.78
2022-10-21T22:31:25.788Z,96369.91
2022-10-21T22:33:59.350Z,96369.06
2022-10-21T22:36:27.250Z,96377.03
2022-10-21T22:38:55.135Z,96373.84
2022-10-21T22:41:22.977Z,96368.13
2022-10-21T22:43:50.907Z,96366.75
2022-10-21T22:46:33.524Z,96382.16
2022-10-21T22:49:04.452Z,96384.94
2022-10-21T22:51:33.382Z,96384.06
2022-10-21T22:54:01.578Z,96388.00
2022-10-21T22:56:30.046Z,96383.81
2022-10-21T22:58:58.325Z,96387.59
2022-10-21T23:01:30.031Z,96401.56
2022-10-21T23:03:58.388Z,96399.19
2022-10-21T23:06:27.654Z,96409.16
2022-10-21T23:08:55.569Z,96420.72
2022-10-21T23:11:23.526Z,96423.38
2022-10-21T23:14:02.475Z,96429.53
2022-10-21T23:16:30.870Z,96438.34
2022-10-21T23:18:58.819Z,96439.88
2022-10-21T23:21:28.759Z,96439.88
2022-10-21T23:23:57.240Z,96441.88
2022-10-21T23:26:25.440Z,96452.47
2022-10-21T23:28:53.460Z,96447.03
2022-10-21T23:31:21.305Z,96450.25
2022-10-21T23:33:49.284Z,96439.47
2022-10-21T23:36:17.126Z,96440.78
2022-10-21T23:38:46.363Z,96449.13
2022-10-21T23:41:14.825Z,96428.47
2022-10-21T23:43:42.706Z,96444.50
2022-10-21T23:46:10.627Z,96426.22
2022-10-21T23:48:38.474Z,96426.97
2022-10-21T23:51:06.917Z,96429.31
2022-10-21T23:53:34.824Z,96428.09
2022-10-21T23:56:04.287Z,96428.91
2022-10-21T23:58:32.333Z,96428.50
